sensor_id;sensor_type;location;lat;lon;timestamp;pressure;altitude;pressure_sealevel;temperature;humidity
76603;BME280;65075;48.390;17.598;2024-02-14T00:01:23;100352.25;;;11.00;44.31
76603;BME280;65075;48.390;17.598;2024-02-14T00:03:49;100347.44;;;8.77;48.50
76603;BME280;65075;48.390;17.598;2024-02-14T00:06:15;100376.06;;;8.56;50.16
76603;BME280;65075;48.390;17.598;2024-02-14T00:08:40;100367.53;;;9.67;48.61
76603;BME280;65075;48.390;17.598;2024-02-14T00:11:06;100371.09;;;8.88;50.88
76603;BME280;65075;48.390;17.598;2024-02-14T00:13:32;100365.19;;;8.45;51.00
76603;BME280;65075;48.390;17.598;2024-02-14T00:16:00;100370.38;;;9.44;48.49
76603;BME280;65075;48.390;17.598;2024-02-14T00:18:26;100366.66;;;9.50;48.04
76603;BME280;65075;48.390;17.598;2024-02-14T00:20:51;100371.84;;;9.63;48.61
76603;BME280;65075;48.390;17.598;2024-02-14T00:23:17;100353.97;;;8.65;49.96
76603;BME280;65075;48.390;17.598;2024-02-14T00:25:42;100330.53;;;8.87;49.10
76603;BME280;65075;48.390;17.598;2024-02-14T00:28:08;100381.53;;;9.88;47.87
76603;BME280;65075;48.390;17.598;2024-02-14T00:30:33;100383.78;;;9.91;47.89
76603;BME280;65075;48.390;17.598;2024-02-14T00:32:59;100380.84;;;9.64;48.03
76603;BME280;65075;48.390;17.598;2024-02-14T00:35:25;100388.59;;;8.92;49.35
76603;BME280;65075;48.390;17.598;2024-02-14T00:37:50;100372.63;;;9.92;47.50
76603;BME280;65075;48.390;17.598;2024-02-14T00:40:17;100369.84;;;10.04;47.02
76603;BME280;65075;48.390;17.598;2024-02-14T00:42:43;100389.75;;;9.76;48.10
76603;BME280;65075;48.390;17.598;2024-02-14T00:45:09;100390.09;;;9.23;49.31
76603;BME280;65075;48.390;17.598;2024-02-14T00:47:35;100394.00;;;7.52;52.78
76603;BME280;65075;48.390;17.598;2024-02-14T00:50:01;100392.97;;;7.94;52.28
76603;BME280;65075;48.390;17.598;2024-02-14T00:52:27;100377.53;;;9.22;48.69
76603;BME280;65075;48.390;17.598;2024-02-14T00:54:53;100395.66;;;9.85;47.70
76603;BME280;65075;48.390;17.598;2024-02-14T00:57:18;100393.13;;;9.95;47.20
76603;BME280;65075;48.390;17.598;2024-02-14T00:59:44;100392.19;;;8.05;50.96
76603;BME280;65075;48.390;17.598;2024-02-14T01:02:10;100399.25;;;8.94;50.30
76603;BME280;65075;48.390;17.598;2024-02-14T01:04:36;100401.34;;;7.81;52.63
76603;BME280;65075;48.390;17.598;2024-02-14T01:07:03;100395.56;;;7.11;54.28
76603;BME280;65075;48.390;17.598;2024-02-14T01:09:29;100397.09;;;6.46;55.70
76603;BME280;65075;48.390;17.598;2024-02-14T01:11:54;100388.63;;;6.79;55.68
76603;BME280;65075;48.390;17.598;2024-02-14T01:14:20;100375.47;;;7.48;53.91
76603;BME280;65075;48.390;17.598;2024-02-14T01:16:47;100394.97;;;7.57;53.21
76603;BME280;65075;48.390;17.598;2024-02-14T01:19:13;100395.50;;;6.81;55.04
76603;BME280;65075;48.390;17.598;2024-02-14T01:21:39;100356.53;;;6.94;54.53
76603;BME280;65075;48.390;17.598;2024-02-14T01:24:05;100384.91;;;7.28;55.26
76603;BME280;65075;48.390;17.598;2024-02-14T01:26:31;100377.84;;;7.57;53.60
76603;BME280;65075;48.390;17.598;2024-02-14T01:28:57;100390.50;;;8.34;52.35
76603;BME280;65075;48.390;17.598;2024-02-14T01:31:23;100364.25;;;6.54;56.71
76603;BME280;65075;48.390;17.598;2024-02-14T01:33:48;100379.97;;;8.37;51.48
76603;BME280;65075;48.390;17.598;2024-02-14T01:36:14;100384.03;;;8.17;51.15
76603;BME280;65075;48.390;17.598;2024-02-14T01:38:40;100387.19;;;8.32;51.40
76603;BME280;65075;48.390;17.598;2024-02-14T01:41:05;100390.03;;;9.46;48.75
76603;BME280;65075;48.390;17.598;2024-02-14T01:43:31;100365.09;;;9.26;48.68
76603;BME280;65075;48.390;17.598;2024-02-14T01:46:05;100387.31;;;8.95;49.64
76603;BME280;65075;48.390;17.598;2024-02-14T01:48:31;100377.38;;;8.66;50.51
76603;BME280;65075;48.390;17.598;2024-02-14T01:50:57;100355.88;;;8.29;51.91
76603;BME280;65075;48.390;17.598;2024-02-14T01:53:24;100381.75;;;8.78;49.09
76603;BME280;65075;48.390;17.598;2024-02-14T01:55:51;100382.88;;;9.17;49.59
76603;BME280;65075;48.390;17.598;2024-02-14T01:58:17;100366.63;;;9.22;48.68
76603;BME280;65075;48.390;17.598;2024-02-14T02:00:43;100366.72;;;8.99;49.63
76603;BME280;65075;48.390;17.598;2024-02-14T02:03:10;100365.50;;;9.74;47.58
76603;BME280;65075;48.390;17.598;2024-02-14T02:05:36;100366.47;;;9.40;48.60
76603;BME280;65075;48.390;17.598;2024-02-14T02:08:01;100341.66;;;9.25;48.14
76603;BME280;65075;48.390;17.598;2024-02-14T02:10:27;100358.59;;;8.52;50.27
76603;BME280;65075;48.390;17.598;2024-02-14T02:13:00;100362.56;;;9.36;48.65
76603;BME280;65075;48.390;17.598;2024-02-14T02:15:27;100344.19;;;9.15;48.09
76603;BME280;65075;48.390;17.598;2024-02-14T02:17:54;100363.34;;;9.76;47.67
76603;BME280;65075;48.390;17.598;2024-02-14T02:20:20;100369.78;;;9.70;47.37
76603;BME280;65075;48.390;17.598;2024-02-14T02:22:47;100372.41;;;9.65;47.59
76603;BME280;65075;48.390;17.598;2024-02-14T02:25:15;100368.13;;;6.65;54.44
76603;BME280;65075;48.390;17.598;2024-02-14T02:27:41;100339.03;;;6.36;55.24
76603;BME280;65075;48.390;17.598;2024-02-14T02:30:07;100368.91;;;4.71;61.30
76603;BME280;65075;48.390;17.598;2024-02-14T02:32:36;100373.97;;;7.34;54.29
76603;BME280;65075;48.390;17.598;2024-02-14T02:35:02;100366.75;;;8.29;51.55
76603;BME280;65075;48.390;17.598;2024-02-14T02:37:28;100383.19;;;9.32;48.57
76603;BME280;65075;48.390;17.598;2024-02-14T02:39:56;100363.59;;;9.18;48.58
76603;BME280;65075;48.390;17.598;2024-02-14T02:42:22;100384.63;;;5.00;60.00
76603;BME280;65075;48.390;17.598;2024-02-14T02:44:50;100377.72;;;3.81;65.55
76603;BME280;65075;48.390;17.598;2024-02-14T02:47:15;100386.28;;;5.90;59.86
76603;BME280;65075;48.390;17.598;2024-02-14T02:49:45;100352.97;;;6.93;55.28
76603;BME280;65075;48.390;17.598;2024-02-14T02:52:11;100391.22;;;6.49;55.79
76603;BME280;65075;48.390;17.598;2024-02-14T02:54:37;100389.25;;;8.06;51.97
76603;BME280;65075;48.390;17.598;2024-02-14T02:57:07;100388.41;;;6.80;56.08
76603;BME280;65075;48.390;17.598;2024-02-14T02:59:32;100397.06;;;4.31;63.13
76603;BME280;65075;48.390;17.598;2024-02-14T03:01:58;100393.03;;;4.79;63.21
76603;BME280;65075;48.390;17.598;2024-02-14T03:04:24;100395.84;;;6.85;56.95
76603;BME280;65075;48.390;17.598;2024-02-14T03:06:50;100369.56;;;7.22;54.04
76603;BME280;65075;48.390;17.598;2024-02-14T03:09:15;100392.69;;;6.70;54.41
76603;BME280;65075;48.390;17.598;2024-02-14T03:11:46;100359.19;;;4.57;61.53
76603;BME280;65075;48.390;17.598;2024-02-14T03:14:13;100401.00;;;3.95;66.04
76603;BME280;65075;48.390;17.598;2024-02-14T03:16:38;100409.81;;;5.52;60.37
76603;BME280;65075;48.390;17.598;2024-02-14T03:19:04;100416.59;;;6.05;59.79
76603;BME280;65075;48.390;17.598;2024-02-14T03:21:31;100416.81;;;7.14;56.38
76603;BME280;65075;48.390;17.598;2024-02-14T03:24:04;100404.09;;;7.92;53.45
76603;BME280;65075;48.390;17.598;2024-02-14T03:26:31;100420.22;;;8.58;51.41
76603;BME280;65075;48.390;17.598;2024-02-14T03:29:00;100422.66;;;8.48;51.06
76603;BME280;65075;48.390;17.598;2024-02-14T03:31:27;100403.19;;;7.50;53.69
76603;BME280;65075;48.390;17.598;2024-02-14T03:33:54;100396.75;;;8.34;51.28
76603;BME280;65075;48.390;17.598;2024-02-14T03:36:20;100418.06;;;8.60;50.37
76603;BME280;65075;48.390;17.598;2024-02-14T03:38:46;100389.78;;;7.56;52.74
76603;BME280;65075;48.390;17.598;2024-02-14T03:41:12;100417.47;;;8.47;51.09
76603;BME280;65075;48.390;17.598;2024-02-14T03:43:39;100426.13;;;8.67;51.18
76603;BME280;65075;48.390;17.598;2024-02-14T03:46:06;100402.44;;;7.91;51.45
76603;BME280;65075;48.390;17.598;2024-02-14T03:48:33;100410.91;;;9.29;49.25
76603;BME280;65075;48.390;17.598;2024-02-14T03:51:00;100383.88;;;8.30;50.67
76603;BME280;65075;48.390;17.598;2024-02-14T03:53:25;100437.78;;;6.15;57.06
76603;BME280;65075;48.390;17.598;2024-02-14T03:55:52;100430.50;;;4.56;64.37
76603;BME280;65075;48.390;17.598;2024-02-14T03:58:20;100436.06;;;4.87;63.31
76603;BME280;65075;48.390;17.598;2024-02-14T04:00:52;100446.41;;;5.61;60.78
76603;BME280;65075;48.390;17.598;2024-02-14T04:03:18;100430.44;;;7.92;54.02
76603;BME280;65075;48.390;17.598;2024-02-14T04:05:45;100437.56;;;7.27;55.92
76603;BME280;65075;48.390;17.598;2024-02-14T04:08:14;100410.25;;;6.18;58.25
76603;BME280;65075;48.390;17.598;2024-02-14T04:10:41;100434.03;;;4.56;63.18
76603;BME280;65075;48.390;17.598;2024-02-14T04:13:07;100440.47;;;4.62;63.95
76603;BME280;65075;48.390;17.598;2024-02-14T04:15:36;100437.44;;;3.59;69.72
76603;BME280;65075;48.390;17.598;2024-02-14T04:18:01;100412.09;;;4.97;64.57
76603;BME280;65075;48.390;17.598;2024-02-14T04:20:31;100446.63;;;3.77;69.28
76603;BME280;65075;48.390;17.598;2024-02-14T04:22:58;100442.97;;;4.18;70.04
76603;BME280;65075;48.390;17.598;2024-02-14T04:25:24;100431.19;;;5.15;64.28
76603;BME280;65075;48.390;17.598;2024-02-14T04:27:51;100443.72;;;3.85;69.61
76603;BME280;65075;48.390;17.598;2024-02-14T04:30:18;100439.22;;;4.25;69.12
76603;BME280;65075;48.390;17.598;2024-02-14T04:32:44;100451.28;;;4.49;66.88
76603;BME280;65075;48.390;17.598;2024-02-14T04:35:11;100444.00;;;4.49;67.94
76603;BME280;65075;48.390;17.598;2024-02-14T04:37:39;100440.44;;;6.21;61.68
76603;BME280;65075;48.390;17.598;2024-02-14T04:40:07;100456.06;;;5.44;63.62
76603;BME280;65075;48.390;17.598;2024-02-14T04:42:34;100453.75;;;4.70;67.06
76603;BME280;65075;48.390;17.598;2024-02-14T04:45:01;100438.78;;;4.74;64.64
76603;BME280;65075;48.390;17.598;2024-02-14T04:47:30;100449.34;;;6.28;62.26
76603;BME280;65075;48.390;17.598;2024-02-14T04:49:57;100447.03;;;6.57;59.47
76603;BME280;65075;48.390;17.598;2024-02-14T04:52:24;100455.31;;;6.86;58.82
76603;BME280;65075;48.390;17.598;2024-02-14T04:54:50;100449.34;;;7.50;56.49
76603;BME280;65075;48.390;17.598;2024-02-14T04:57:17;100458.22;;;6.67;58.22
76603;BME280;65075;48.390;17.598;2024-02-14T04:59:46;100462.56;;;5.30;62.90
76603;BME280;65075;48.390;17.598;2024-02-14T05:02:13;100414.28;;;6.33;58.71
76603;BME280;65075;48.390;17.598;2024-02-14T05:04:40;100456.03;;;4.86;64.52
76603;BME280;65075;48.390;17.598;2024-02-14T05:07:07;100457.97;;;3.53;70.57
76603;BME280;65075;48.390;17.598;2024-02-14T05:09:34;100426.03;;;3.09;71.14
76603;BME280;65075;48.390;17.598;2024-02-14T05:12:01;100457.94;;;2.99;74.39
76603;BME280;65075;48.390;17.598;2024-02-14T05:14:30;100454.34;;;3.26;73.11
76603;BME280;65075;48.390;17.598;2024-02-14T05:16:57;100444.88;;;2.68;74.85
76603;BME280;65075;48.390;17.598;2024-02-14T05:19:29;100442.09;;;2.55;76.47
76603;BME280;65075;48.390;17.598;2024-02-14T05:21:56;100437.50;;;2.83;74.57
76603;BME280;65075;48.390;17.598;2024-02-14T05:24:22;100455.25;;;2.71;75.51
76603;BME280;65075;48.390;17.598;2024-02-14T05:26:48;100427.75;;;2.48;75.50
76603;BME280;65075;48.390;17.598;2024-02-14T05:29:14;100462.41;;;2.30;77.09
76603;BME280;65075;48.390;17.598;2024-02-14T05:31:47;100444.59;;;4.78;68.38
76603;BME280;65075;48.390;17.598;2024-02-14T05:34:18;100467.97;;;5.87;63.27
76603;BME280;65075;48.390;17.598;2024-02-14T05:36:45;100473.91;;;4.74;66.48
76603;BME280;65075;48.390;17.598;2024-02-14T05:39:15;100469.84;;;3.59;68.83
76603;BME280;65075;48.390;17.598;2024-02-14T05:41:42;100470.19;;;4.75;66.75
76603;BME280;65075;48.390;17.598;2024-02-14T05:44:09;100466.84;;;4.08;68.62
76603;BME280;65075;48.390;17.598;2024-02-14T05:46:36;100449.19;;;4.64;67.77
76603;BME280;65075;48.390;17.598;2024-02-14T05:49:03;100454.28;;;3.20;72.14
76603;BME280;65075;48.390;17.598;2024-02-14T05:51:30;100478.06;;;3.44;70.35
76603;BME280;65075;48.390;17.598;2024-02-14T05:53:58;100462.47;;;3.93;70.10
76603;BME280;65075;48.390;17.598;2024-02-14T05:56:26;100483.19;;;5.17;65.32
76603;BME280;65075;48.390;17.598;2024-02-14T05:58:53;100484.56;;;5.53;63.38
76603;BME280;65075;48.390;17.598;2024-02-14T06:01:20;100490.28;;;5.76;61.27
76603;BME280;65075;48.390;17.598;2024-02-14T06:03:47;100487.94;;;5.42;62.48
76603;BME280;65075;48.390;17.598;2024-02-14T06:06:13;100511.88;;;6.83;58.78
76603;BME280;65075;48.390;17.598;2024-02-14T06:08:40;100488.66;;;7.12;57.73
76603;BME280;65075;48.390;17.598;2024-02-14T06:11:07;100511.16;;;6.13;59.72
76603;BME280;65075;48.390;17.598;2024-02-14T06:13:34;100500.50;;;7.17;57.01
76603;BME280;65075;48.390;17.598;2024-02-14T06:16:02;100468.72;;;8.02;54.82
76603;BME280;65075;48.390;17.598;2024-02-14T06:18:28;100498.00;;;8.59;53.03
76603;BME280;65075;48.390;17.598;2024-02-14T06:20:55;100502.25;;;8.44;53.23
76603;BME280;65075;48.390;17.598;2024-02-14T06:23:23;100493.13;;;6.57;58.42
76603;BME280;65075;48.390;17.598;2024-02-14T06:25:51;100498.09;;;6.60;58.54
76603;BME280;65075;48.390;17.598;2024-02-14T06:28:19;100510.75;;;7.33;57.52
76603;BME280;65075;48.390;17.598;2024-02-14T06:30:46;100511.13;;;7.37;56.36
76603;BME280;65075;48.390;17.598;2024-02-14T06:33:11;100508.09;;;7.09;58.28
76603;BME280;65075;48.390;17.598;2024-02-14T06:35:38;100507.63;;;6.69;58.98
76603;BME280;65075;48.390;17.598;2024-02-14T06:38:05;100513.88;;;6.45;60.12
76603;BME280;65075;48.390;17.598;2024-02-14T06:40:33;100525.84;;;6.62;60.13
76603;BME280;65075;48.390;17.598;2024-02-14T06:43:00;100515.97;;;6.92;59.83
76603;BME280;65075;48.390;17.598;2024-02-14T06:45:26;100525.41;;;6.65;60.04
76603;BME280;65075;48.390;17.598;2024-02-14T06:47:53;100500.47;;;6.50;59.48
76603;BME280;65075;48.390;17.598;2024-02-14T06:50:19;100523.97;;;7.05;59.67
76603;BME280;65075;48.390;17.598;2024-02-14T06:52:44;100527.03;;;6.66;59.76
76603;BME280;65075;48.390;17.598;2024-02-14T06:55:11;100517.53;;;6.81;58.22
76603;BME280;65075;48.390;17.598;2024-02-14T06:57:37;100526.69;;;7.05;59.04
76603;BME280;65075;48.390;17.598;2024-02-14T07:00:03;100516.75;;;6.99;57.95
76603;BME280;65075;48.390;17.598;2024-02-14T07:02:31;100516.41;;;6.89;58.78
76603;BME280;65075;48.390;17.598;2024-02-14T07:04:57;100527.19;;;6.71;59.89
76603;BME280;65075;48.390;17.598;2024-02-14T07:07:23;100524.03;;;7.78;55.94
76603;BME280;65075;48.390;17.598;2024-02-14T07:09:48;100521.91;;;7.98;56.50
76603;BME280;65075;48.390;17.598;2024-02-14T07:12:14;100508.19;;;8.52;55.54
76603;BME280;65075;48.390;17.598;2024-02-14T07:14:39;100536.22;;;6.33;60.83
76603;BME280;65075;48.390;17.598;2024-02-14T07:17:05;100535.91;;;8.73;53.78
76603;BME280;65075;48.390;17.598;2024-02-14T07:19:30;100515.59;;;9.10;52.78
76603;BME280;65075;48.390;17.598;2024-02-14T07:21:56;100534.06;;;9.83;50.83
76603;BME280;65075;48.390;17.598;2024-02-14T07:24:21;100543.03;;;9.43;51.38
76603;BME280;65075;48.390;17.598;2024-02-14T07:26:47;100540.41;;;9.48;51.86
76603;BME280;65075;48.390;17.598;2024-02-14T07:29:14;100543.13;;;8.79;54.41
76603;BME280;65075;48.390;17.598;2024-02-14T07:31:39;100537.00;;;11.66;46.21
76603;BME280;65075;48.390;17.598;2024-02-14T07:34:05;100550.63;;;10.44;49.34
76603;BME280;65075;48.390;17.598;2024-02-14T07:36:31;100551.63;;;9.87;50.12
76603;BME280;65075;48.390;17.598;2024-02-14T07:38:57;100548.84;;;11.33;46.91
76603;BME280;65075;48.390;17.598;2024-02-14T07:41:23;100552.50;;;11.77;45.89
76603;BME280;65075;48.390;17.598;2024-02-14T07:43:49;100549.34;;;10.80;47.80
76603;BME280;65075;48.390;17.598;2024-02-14T07:46:19;100519.34;;;10.35;48.30
76603;BME280;65075;48.390;17.598;2024-02-14T07:48:45;100540.41;;;11.18;46.83
76603;BME280;65075;48.390;17.598;2024-02-14T07:51:11;100546.22;;;10.43;49.25
76603;BME280;65075;48.390;17.598;2024-02-14T07:53:37;100552.31;;;12.27;45.08
76603;BME280;65075;48.390;17.598;2024-02-14T07:56:04;100544.59;;;12.02;45.23
76603;BME280;65075;48.390;17.598;2024-02-14T07:58:31;100541.63;;;11.82;45.73
76603;BME280;65075;48.390;17.598;2024-02-14T08:00:58;100565.03;;;11.73;46.21
76603;BME280;65075;48.390;17.598;2024-02-14T08:03:25;100554.78;;;10.80;47.51
76603;BME280;65075;48.390;17.598;2024-02-14T08:05:52;100551.38;;;10.28;48.73
76603;BME280;65075;48.390;17.598;2024-02-14T08:08:19;100551.75;;;11.10;48.13
76603;BME280;65075;48.390;17.598;2024-02-14T08:10:46;100547.38;;;11.09;49.00
76603;BME280;65075;48.390;17.598;2024-02-14T08:13:13;100560.41;;;8.43;55.57
76603;BME280;65075;48.390;17.598;2024-02-14T08:15:42;100561.97;;;9.15;54.82
76603;BME280;65075;48.390;17.598;2024-02-14T08:18:09;100572.66;;;10.71;50.25
76603;BME280;65075;48.390;17.598;2024-02-14T08:20:39;100559.75;;;10.83;49.74
76603;BME280;65075;48.390;17.598;2024-02-14T08:23:09;100568.47;;;10.23;51.61
76603;BME280;65075;48.390;17.598;2024-02-14T08:25:35;100531.56;;;9.93;51.06
76603;BME280;65075;48.390;17.598;2024-02-14T08:28:02;100571.16;;;10.80;49.54
76603;BME280;65075;48.390;17.598;2024-02-14T08:30:29;100581.53;;;10.10;51.32
76603;BME280;65075;48.390;17.598;2024-02-14T08:32:56;100563.84;;;10.52;50.19
76603;BME280;65075;48.390;17.598;2024-02-14T08:35:22;100554.78;;;10.63;49.77
76603;BME280;65075;48.390;17.598;2024-02-14T08:37:49;100576.53;;;11.58;46.94
76603;BME280;65075;48.390;17.598;2024-02-14T08:40:16;100573.22;;;11.56;46.41
76603;BME280;65075;48.390;17.598;2024-02-14T08:42:43;100577.03;;;12.37;45.22
76603;BME280;65075;48.390;17.598;2024-02-14T08:45:11;100563.91;;;8.61;53.57
76603;BME280;65075;48.390;17.598;2024-02-14T08:47:38;100569.31;;;9.49;53.50
76603;BME280;65075;48.390;17.598;2024-02-14T08:50:06;100573.09;;;9.60;53.91
76603;BME280;65075;48.390;17.598;2024-02-14T08:52:33;100571.53;;;11.17;49.89
76603;BME280;65075;48.390;17.598;2024-02-14T08:55:01;100566.28;;;10.82;49.96
76603;BME280;65075;48.390;17.598;2024-02-14T08:57:29;100570.34;;;12.28;46.81
76603;BME280;65075;48.390;17.598;2024-02-14T08:59:58;100575.59;;;12.56;45.77
76603;BME280;65075;48.390;17.598;2024-02-14T09:02:25;100570.97;;;11.53;48.57
76603;BME280;65075;48.390;17.598;2024-02-14T09:04:52;100570.53;;;11.06;50.31
76603;BME280;65075;48.390;17.598;2024-02-14T09:07:18;100555.94;;;12.11;47.44
76603;BME280;65075;48.390;17.598;2024-02-14T09:09:45;100564.88;;;10.79;51.60
76603;BME280;65075;48.390;17.598;2024-02-14T09:12:13;100567.38;;;10.98;51.18
76603;BME280;65075;48.390;17.598;2024-02-14T09:14:39;100556.88;;;10.05;54.90
76603;BME280;65075;48.390;17.598;2024-02-14T09:17:09;100551.31;;;9.25;56.77
76603;BME280;65075;48.390;17.598;2024-02-14T09:19:36;100543.00;;;8.97;58.45
76603;BME280;65075;48.390;17.598;2024-02-14T09:22:07;100541.63;;;7.57;63.23
76603;BME280;65075;48.390;17.598;2024-02-14T09:24:33;100567.13;;;7.56;64.10
76603;BME280;65075;48.390;17.598;2024-02-14T09:27:00;100560.97;;;7.24;64.70
76603;BME280;65075;48.390;17.598;2024-02-14T09:29:28;100560.00;;;8.69;61.44
76603;BME280;65075;48.390;17.598;2024-02-14T09:31:55;100561.97;;;9.61;57.46
76603;BME280;65075;48.390;17.598;2024-02-14T09:34:22;100571.75;;;10.37;55.42
76603;BME280;65075;48.390;17.598;2024-02-14T09:36:47;100567.16;;;9.05;60.39
76603;BME280;65075;48.390;17.598;2024-02-14T09:39:16;100567.31;;;10.08;55.51
76603;BME280;65075;48.390;17.598;2024-02-14T09:41:51;100562.22;;;7.65;63.46
76603;BME280;65075;48.390;17.598;2024-02-14T09:44:21;100573.69;;;8.62;62.54
76603;BME280;65075;48.390;17.598;2024-02-14T09:46:52;100567.38;;;12.07;52.62
76603;BME280;65075;48.390;17.598;2024-02-14T09:49:20;100581.63;;;11.33;51.67
76603;BME280;65075;48.390;17.598;2024-02-14T09:51:46;100561.22;;;9.77;56.23
76603;BME280;65075;48.390;17.598;2024-02-14T09:54:15;100582.94;;;11.14;53.81
76603;BME280;65075;48.390;17.598;2024-02-14T09:56:49;100577.53;;;12.34;50.73
76603;BME280;65075;48.390;17.598;2024-02-14T09:59:17;100578.63;;;12.81;48.48
76603;BME280;65075;48.390;17.598;2024-02-14T10:01:44;100579.72;;;12.32;50.91
76603;BME280;65075;48.390;17.598;2024-02-14T10:04:12;100523.16;;;11.34;51.02
76603;BME280;65075;48.390;17.598;2024-02-14T10:06:39;100581.38;;;12.86;47.83
76603;BME280;65075;48.390;17.598;2024-02-14T10:09:06;100581.34;;;14.49;43.64
76603;BME280;65075;48.390;17.598;2024-02-14T10:11:34;100576.78;;;12.65;48.58
76603;BME280;65075;48.390;17.598;2024-02-14T10:14:02;100570.59;;;13.80;45.63
76603;BME280;65075;48.390;17.598;2024-02-14T10:16:35;100566.50;;;14.45;43.78
76603;BME280;65075;48.390;17.598;2024-02-14T10:19:18;100562.84;;;13.67;45.34
76603;BME280;65075;48.390;17.598;2024-02-14T10:22:05;100577.47;;;14.35;43.18
76603;BME280;65075;48.390;17.598;2024-02-14T10:24:37;100569.31;;;12.55;47.16
76603;BME280;65075;48.390;17.598;2024-02-14T10:27:06;100536.81;;;11.34;49.45
76603;BME280;65075;48.390;17.598;2024-02-14T10:29:34;100572.22;;;10.34;54.52
76603;BME280;65075;48.390;17.598;2024-02-14T10:32:01;100569.28;;;10.80;53.10
76603;BME280;65075;48.390;17.598;2024-02-14T10:34:30;100567.59;;;10.34;54.25
76603;BME280;65075;48.390;17.598;2024-02-14T10:36:57;100563.16;;;11.40;52.39
76603;BME280;65075;48.390;17.598;2024-02-14T10:39:26;100561.75;;;10.14;54.79
76603;BME280;65075;48.390;17.598;2024-02-14T10:41:55;100553.72;;;10.98;52.88
76603;BME280;65075;48.390;17.598;2024-02-14T10:44:22;100553.81;;;11.03;50.62
76603;BME280;65075;48.390;17.598;2024-02-14T10:46:52;100553.25;;;11.01;50.00
76603;BME280;65075;48.390;17.598;2024-02-14T10:49:43;100544.56;;;10.87;51.44
76603;BME280;65075;48.390;17.598;2024-02-14T10:52:16;100537.50;;;10.29;51.65
76603;BME280;65075;48.390;17.598;2024-02-14T10:54:52;100539.84;;;9.98;52.05
76603;BME280;65075;48.390;17.598;2024-02-14T10:57:24;100541.50;;;11.00;50.58
76603;BME280;65075;48.390;17.598;2024-02-14T10:59:56;100530.38;;;9.89;51.72
76603;BME280;65075;48.390;17.598;2024-02-14T11:02:25;100526.31;;;10.03;53.30
76603;BME280;65075;48.390;17.598;2024-02-14T11:05:22;100542.44;;;10.44;51.03
76603;BME280;65075;48.390;17.598;2024-02-14T11:12:11;100488.84;;;9.82;53.32
76603;BME280;65075;48.390;17.598;2024-02-14T11:14:42;100530.88;;;9.86;53.55
76603;BME280;65075;48.390;17.598;2024-02-14T11:17:09;100520.56;;;9.76;53.90
76603;BME280;65075;48.390;17.598;2024-02-14T11:19:38;100518.25;;;10.36;52.75
76603;BME280;65075;48.390;17.598;2024-02-14T11:22:11;100525.91;;;10.22;53.45
76603;BME280;65075;48.390;17.598;2024-02-14T11:24:40;100512.78;;;10.64;52.08
76603;BME280;65075;48.390;17.598;2024-02-14T11:27:11;100499.19;;;11.03;50.88
76603;BME280;65075;48.390;17.598;2024-02-14T11:29:40;100512.75;;;12.13;48.21
76603;BME280;65075;48.390;17.598;2024-02-14T11:32:11;100506.38;;;13.76;45.01
76603;BME280;65075;48.390;17.598;2024-02-14T11:34:39;100472.56;;;10.76;50.85
76603;BME280;65075;48.390;17.598;2024-02-14T11:37:06;100461.97;;;10.80;49.72
76603;BME280;65075;48.390;17.598;2024-02-14T11:39:33;100500.78;;;12.77;45.99
76603;BME280;65075;48.390;17.598;2024-02-14T11:42:01;100488.97;;;12.72;46.19
76603;BME280;65075;48.390;17.598;2024-02-14T11:44:29;100492.59;;;12.82;46.41
76603;BME280;65075;48.390;17.598;2024-02-14T11:47:00;100480.16;;;14.05;44.17
76603;BME280;65075;48.390;17.598;2024-02-14T11:49:27;100485.53;;;11.79;50.35
76603;BME280;65075;48.390;17.598;2024-02-14T11:51:54;100485.69;;;12.43;48.71
76603;BME280;65075;48.390;17.598;2024-02-14T11:54:21;100479.72;;;11.54;49.41
76603;BME280;65075;48.390;17.598;2024-02-14T11:56:48;100481.59;;;12.45;47.93
76603;BME280;65075;48.390;17.598;2024-02-14T11:59:15;100443.84;;;12.79;46.84
76603;BME280;65075;48.390;17.598;2024-02-14T12:01:46;100478.63;;;13.57;45.29
76603;BME280;65075;48.390;17.598;2024-02-14T12:04:14;100472.56;;;10.43;53.12
76603;BME280;65075;48.390;17.598;2024-02-14T12:06:41;100468.09;;;12.34;49.27
76603;BME280;65075;48.390;17.598;2024-02-14T12:09:09;100462.50;;;13.76;44.58
76603;BME280;65075;48.390;17.598;2024-02-14T12:11:42;100467.72;;;11.98;48.38
76603;BME280;65075;48.390;17.598;2024-02-14T12:14:10;100467.19;;;13.24;45.40
76603;BME280;65075;48.390;17.598;2024-02-14T12:16:43;100460.88;;;11.36;49.78
76603;BME280;65075;48.390;17.598;2024-02-14T12:19:15;100460.13;;;13.33;46.34
76603;BME280;65075;48.390;17.598;2024-02-14T12:21:42;100466.41;;;12.96;46.50
76603;BME280;65075;48.390;17.598;2024-02-14T12:24:12;100460.25;;;13.58;45.14
76603;BME280;65075;48.390;17.598;2024-02-14T12:26:42;100465.22;;;12.82;46.28
76603;BME280;65075;48.390;17.598;2024-02-14T12:29:11;100454.38;;;10.99;51.42
76603;BME280;65075;48.390;17.598;2024-02-14T12:31:39;100460.94;;;11.79;50.22
76603;BME280;65075;48.390;17.598;2024-02-14T12:34:05;100470.22;;;11.18;50.47
76603;BME280;65075;48.390;17.598;2024-02-14T12:36:36;100456.91;;;11.43;49.28
76603;BME280;65075;48.390;17.598;2024-02-14T12:39:03;100454.66;;;12.05;48.41
76603;BME280;65075;48.390;17.598;2024-02-14T12:41:31;100470.63;;;12.72;47.07
76603;BME280;65075;48.390;17.598;2024-02-14T12:43:58;100456.00;;;12.93;45.78
76603;BME280;65075;48.390;17.598;2024-02-14T12:46:24;100451.22;;;13.10;45.48
76603;BME280;65075;48.390;17.598;2024-02-14T12:48:50;100450.38;;;13.57;44.53
76603;BME280;65075;48.390;17.598;2024-02-14T12:51:16;100441.03;;;11.40;49.72